createdAt,value
2022-11-18T00:01:21.048Z,9.26
2022-11-18T00:03:49.065Z,9.25
2022-11-18T00:06:18.613Z,9.33
2022-11-18T00:08:45.961Z,9.36
2022-11-18T00:11:35.933Z,9.38
2022-11-18T00:14:22.546Z,9.35
2022-11-18T00:16:49.818Z,9.34
2022-11-18T00:19:17.843Z,9.25
2022-11-18T00:21:45.218Z,9.21
2022-11-18T00:24:12.485Z,9.13
2022-11-18T00:26:39.685Z,9.12
2022-11-18T00:29:06.811Z,9.11
2022-11-18T00:31:34.436Z,9.10
2022-11-18T00:34:01.603Z,9.07
2022-11-18T00:36:29.691Z,9.09
2022-11-18T00:38:56.938Z,9.26
2022-11-18T00:41:24.311Z,9.11
2022-11-18T00:43:51.496Z,9.11
2022-11-18T00:46:18.576Z,9.05
2022-11-18T00:48:45.680Z,9.05
2022-11-18T00:51:18.624Z,9.04
2022-11-18T00:53:46.341Z,9.00
2022-11-18T00:56:13.426Z,8.93
2022-11-18T00:58:40.622Z,8.91
2022-11-18T01:01:07.813Z,8.86
2022-11-18T01:03:35.045Z,8.84
2022-11-18T01:06:02.265Z,8.75
2022-11-18T01:08:29.464Z,8.73
2022-11-18T01:11:17.874Z,8.70
2022-11-18T01:13:44.996Z,8.64
2022-11-18T01:16:12.222Z,8.59
2022-11-18T01:18:39.528Z,8.54
2022-11-18T01:21:07.434Z,8.50
2022-11-18T01:23:34.821Z,8.46
2022-11-18T01:26:06.584Z,8.28
2022-11-18T01:28:34.068Z,8.32
2022-11-18T01:31:10.017Z,8.31
2022-11-18T01:33:37.866Z,8.18
2022-11-18T01:36:13.775Z,8.02
2022-11-18T01:38:40.919Z,8.19
2022-11-18T01:41:08.023Z,8.15
2022-11-18T01:43:55.148Z,8.06
2022-11-18T01:46:25.008Z,7.87
2022-11-18T01:49:19.437Z,8.03
2022-11-18T01:51:55.496Z,7.96
2022-11-18T01:54:33.336Z,7.97
2022-11-18T01:57:05.905Z,8.01
2022-11-18T01:59:37.697Z,7.99
2022-11-18T02:02:14.078Z,8.03
2022-11-18T02:04:44.897Z,7.94
2022-11-18T02:07:13.872Z,8.00
2022-11-18T02:09:41.229Z,7.97
2022-11-18T02:12:09.184Z,8.00
2022-11-18T02:14:40.784Z,7.79
2022-11-18T02:17:17.071Z,7.85
2022-11-18T02:19:47.584Z,7.84
2022-11-18T02:22:23.976Z,7.92
2022-11-18T02:25:25.839Z,7.82
2022-11-18T02:28:11.853Z,7.85
2022-11-18T02:30:58.823Z,7.77
2022-11-18T02:33:54.572Z,7.72
2022-11-18T02:36:43.958Z,7.75
2022-11-18T02:39:22.543Z,7.68
2022-11-18T02:41:53.328Z,7.61
2022-11-18T02:44:24.688Z,7.50
2022-11-18T02:46:57.193Z,7.54
2022-11-18T02:49:32.447Z,7.55
2022-11-18T02:52:02.092Z,7.53
2022-11-18T02:54:29.642Z,7.56
2022-11-18T02:56:58.719Z,7.52
2022-11-18T02:59:28.521Z,7.46
2022-11-18T03:01:55.937Z,7.52
2022-11-18T03:04:24.318Z,7.42
2022-11-18T03:07:03.627Z,7.39
2022-11-18T03:09:43.246Z,7.35
2022-11-18T03:12:29.618Z,7.27
2022-11-18T03:15:28.963Z,7.35
2022-11-18T03:18:05.872Z,7.31
2022-11-18T03:20:42.530Z,7.30
2022-11-18T03:23:30.576Z,7.15
2022-11-18T03:26:14.423Z,7.31
2022-11-18T03:28:57.280Z,7.43
2022-11-18T03:31:35.774Z,7.44
2022-11-18T03:34:10.126Z,7.47
2022-11-18T03:36:42.135Z,7.57
2022-11-18T03:39:12.132Z,7.63
2022-11-18T03:41:46.772Z,7.61
2022-11-18T03:44:34.857Z,7.57
2022-11-18T03:47:17.817Z,7.52
2022-11-18T03:49:56.998Z,7.49
2022-11-18T03:52:30.199Z,7.44
2022-11-18T03:55:01.162Z,7.37
2022-11-18T03:57:39.379Z,7.20
2022-11-18T04:00:09.841Z,7.26
2022-11-18T04:02:38.356Z,7.20
2022-11-18T04:05:09.842Z,7.17
2022-11-18T04:07:44.818Z,7.12
2022-11-18T04:10:14.452Z,7.17
2022-11-18T04:12:47.684Z,7.15
2022-11-18T04:15:15.767Z,7.12
2022-11-18T04:17:43.629Z,6.98
2022-11-18T04:20:18.129Z,7.06
2022-11-18T04:22:45.929Z,6.99
2022-11-18T04:25:13.439Z,6.96
2022-11-18T04:27:40.573Z,6.93
2022-11-18T04:30:08.626Z,6.85
2022-11-18T04:32:36.360Z,6.79
2022-11-18T04:35:04.013Z,6.78
2022-11-18T04:37:31.134Z,6.73
2022-11-18T04:39:58.838Z,6.73
2022-11-18T04:42:26.192Z,6.60
2022-11-18T04:44:53.271Z,6.73
2022-11-18T04:47:20.653Z,6.69
2022-11-18T04:49:47.904Z,6.67
2022-11-18T04:52:15.483Z,6.69
2022-11-18T04:54:42.653Z,6.67
2022-11-18T04:57:10.210Z,6.71
2022-11-18T04:59:38.524Z,6.73
2022-11-18T05:02:10.144Z,6.74
2022-11-18T05:04:40.599Z,6.71
2022-11-18T05:07:08.207Z,6.73
2022-11-18T05:09:35.700Z,6.76
2022-11-18T05:12:21.999Z,6.72
2022-11-18T05:14:50.854Z,6.75
2022-11-18T05:17:21.204Z,6.65
2022-11-18T05:19:50.120Z,6.65
2022-11-18T05:22:17.679Z,6.47
2022-11-18T05:24:44.940Z,6.61
2022-11-18T05:27:13.315Z,6.54
2022-11-18T05:29:40.491Z,6.54
2022-11-18T05:32:07.717Z,6.42
2022-11-18T05:34:35.049Z,6.35
2022-11-18T05:37:02.199Z,6.35
2022-11-18T05:39:29.561Z,6.35
2022-11-18T05:42:15.267Z,6.31
2022-11-18T05:44:42.660Z,6.27
2022-11-18T05:47:09.916Z,6.25
2022-11-18T05:49:37.492Z,6.22
2022-11-18T05:52:06.312Z,6.18
2022-11-18T05:54:35.853Z,6.15
2022-11-18T05:57:03.764Z,6.12
2022-11-18T05:59:32.295Z,6.04
2022-11-18T06:02:11.239Z,6.05
2022-11-18T06:04:45.113Z,6.07
2022-11-18T06:07:24.479Z,6.01
2022-11-18T06:09:59.759Z,6.00
2022-11-18T06:12:36.577Z,5.96
2022-11-18T06:15:23.525Z,5.94
2022-11-18T06:18:02.305Z,5.92
2022-11-18T06:20:30.312Z,5.86
2022-11-18T06:22:59.465Z,5.85
2022-11-18T06:25:27.657Z,5.84
2022-11-18T06:27:57.940Z,5.85
2022-11-18T06:30:25.255Z,5.59
2022-11-18T06:32:52.502Z,5.82
2022-11-18T06:35:19.888Z,5.70
2022-11-18T06:37:47.922Z,5.86
2022-11-18T06:40:15.602Z,5.79
2022-11-18T06:43:02.033Z,5.83
2022-11-18T06:45:30.327Z,5.85
2022-11-18T06:48:10.078Z,5.86
2022-11-18T06:50:37.820Z,5.85
2022-11-18T06:53:05.032Z,5.96
2022-11-18T06:55:32.315Z,6.53
2022-11-18T06:57:59.708Z,6.62
2022-11-18T07:00:26.848Z,6.88
2022-11-18T07:02:53.992Z,7.02
2022-11-18T07:05:21.263Z,6.94
2022-11-18T07:07:48.578Z,6.88
2022-11-18T07:10:19.297Z,6.98
2022-11-18T07:12:46.891Z,6.99
2022-11-18T07:15:14.032Z,7.01
2022-11-18T07:17:41.645Z,6.98
2022-11-18T07:20:09.369Z,6.98
2022-11-18T07:22:37.234Z,6.91
2022-11-18T07:25:05.266Z,6.92
2022-11-18T07:27:32.590Z,6.88
2022-11-18T07:29:59.645Z,6.83
2022-11-18T07:32:26.878Z,6.90
2022-11-18T07:34:54.375Z,6.93
2022-11-18T07:37:21.682Z,7.02
2022-11-18T07:39:48.814Z,7.14
2022-11-18T07:42:15.997Z,7.23
2022-11-18T07:44:43.358Z,7.42
2022-11-18T07:47:10.504Z,7.47
2022-11-18T07:49:37.741Z,7.38
2022-11-18T07:52:05.043Z,7.32
2022-11-18T07:54:32.643Z,7.23
2022-11-18T07:56:59.981Z,7.30
2022-11-18T07:59:27.157Z,7.26
2022-11-18T08:01:58.199Z,7.34
2022-11-18T08:04:25.518Z,7.36
2022-11-18T08:06:52.959Z,7.26
2022-11-18T08:09:20.577Z,7.32
2022-11-18T08:11:48.535Z,7.26
2022-11-18T08:14:15.932Z,7.17
2022-11-18T08:16:43.404Z,7.38
2022-11-18T08:19:10.790Z,7.43
2022-11-18T08:21:38.119Z,7.43
2022-11-18T08:24:05.975Z,7.35
2022-11-18T08:26:33.319Z,7.35
2022-11-18T08:29:01.029Z,7.42
2022-11-18T08:31:31.272Z,7.52
2022-11-18T08:34:01.461Z,7.65
2022-11-18T08:36:31.427Z,7.72
2022-11-18T08:39:01.518Z,7.74
2022-11-18T08:41:33.626Z,7.67
2022-11-18T08:44:05.545Z,7.86
2022-11-18T08:46:37.172Z,7.80
2022-11-18T08:49:09.289Z,7.93
2022-11-18T08:51:36.691Z,8.29
2022-11-18T08:54:04.199Z,8.46
2022-11-18T08:56:31.683Z,8.54
2022-11-18T08:58:59.063Z,8.31
2022-11-18T09:01:28.317Z,8.33
2022-11-18T09:03:56.275Z,8.31
2022-11-18T09:06:27.335Z,8.27
2022-11-18T09:08:54.989Z,8.32
2022-11-18T09:11:27.513Z,8.31
2022-11-18T09:16:46.083Z,8.36
2022-11-18T09:22:02.813Z,8.27
2022-11-18T09:24:30.419Z,8.31
2022-11-18T09:26:57.798Z,8.32
2022-11-18T09:29:28.318Z,8.25
2022-11-18T09:31:56.121Z,8.35
2022-11-18T09:34:24.412Z,8.28
2022-11-18T09:36:57.175Z,8.42
2022-11-18T09:39:25.732Z,8.29
2022-11-18T09:42:42.629Z,8.39
2022-11-18T09:45:28.802Z,8.36
2022-11-18T09:48:03.850Z,8.41
2022-11-18T09:53:25.431Z,8.42
2022-11-18T09:55:54.063Z,8.31
2022-11-18T09:58:30.493Z,8.46
2022-11-18T10:00:57.913Z,8.49
2022-11-18T10:03:30.302Z,8.55
2022-11-18T10:06:00.596Z,8.62
2022-11-18T10:08:54.122Z,8.70
2022-11-18T10:11:25.547Z,8.71
2022-11-18T10:14:16.013Z,8.81
2022-11-18T10:17:06.320Z,8.93
2022-11-18T10:20:25.537Z,9.01
2022-11-18T10:23:02.592Z,9.02
2022-11-18T10:25:30.099Z,9.10
2022-11-18T10:28:14.574Z,9.22
2022-11-18T10:30:42.038Z,9.31
2022-11-18T10:33:27.778Z,9.32
2022-11-18T10:36:17.246Z,9.45
2022-11-18T10:38:49.686Z,9.52
2022-11-18T10:41:21.590Z,9.62
2022-11-18T10:43:53.205Z,9.63
2022-11-18T10:46:32.607Z,9.73
2022-11-18T10:49:08.852Z,9.85
2022-11-18T10:51:37.293Z,9.95
2022-11-18T10:54:16.904Z,9.97
2022-11-18T10:56:57.826Z,10.08
2022-11-18T10:59:56.950Z,10.17
2022-11-18T11:02:31.910Z,10.25
2022-11-18T11:05:05.216Z,10.04
2022-11-18T11:07:33.079Z,10.51
2022-11-18T11:10:06.936Z,10.53
2022-11-18T11:12:36.228Z,10.58
2022-11-18T11:15:12.154Z,10.58
2022-11-18T11:17:46.524Z,10.71
2022-11-18T11:20:24.099Z,10.80
2022-11-18T11:22:54.820Z,10.84
2022-11-18T11:29:00.948Z,10.96
2022-11-18T11:31:44.927Z,11.10
2022-11-18T11:34:30.978Z,11.13
2022-11-18T11:37:38.840Z,11.13
2022-11-18T11:40:42.778Z,11.22
2022-11-18T11:43:44.188Z,11.21
2022-11-18T11:46:40.135Z,11.27
2022-11-18T11:49:29.911Z,11.38
2022-11-18T11:52:14.317Z,11.39
2022-11-18T11:54:44.443Z,11.55
2022-11-18T11:57:37.787Z,11.52
2022-11-18T12:00:06.728Z,11.57
2022-11-18T12:02:45.988Z,11.67
2022-11-18T12:05:31.688Z,11.59
2022-11-18T12:08:04.360Z,11.80
2022-11-18T12:10:40.826Z,12.05
2022-11-18T12:13:33.885Z,12.26
2022-11-18T12:16:23.859Z,11.96
2022-11-18T12:18:57.087Z,11.37
2022-11-18T12:21:45.856Z,10.87
2022-11-18T12:24:36.800Z,10.73
2022-11-18T12:27:12.289Z,10.51
2022-11-18T12:29:42.278Z,10.42
2022-11-18T12:32:34.969Z,10.25
2022-11-18T12:35:25.321Z,10.25
2022-11-18T12:37:52.618Z,10.19
2022-11-18T12:40:50.535Z,10.17
2022-11-18T12:43:51.245Z,10.21
2022-11-18T12:46:28.076Z,10.24
2022-11-18T12:48:55.430Z,10.16
2022-11-18T12:51:22.460Z,10.20
2022-11-18T12:53:51.045Z,10.19
2022-11-18T12:56:18.185Z,10.13
2022-11-18T12:58:46.464Z,10.05
2022-11-18T13:01:16.893Z,9.92
2022-11-18T13:03:44.627Z,9.93
2022-11-18T13:06:33.550Z,9.94
2022-11-18T13:09:08.379Z,9.76
2022-11-18T13:11:47.995Z,9.95
2022-11-18T13:14:46.556Z,10.03
2022-11-18T13:17:52.605Z,10.04
2022-11-18T13:20:23.118Z,10.02
2022-11-18T13:23:17.053Z,10.05
2022-11-18T13:25:46.495Z,10.12
2022-11-18T13:28:38.411Z,10.22
2022-11-18T13:31:45.125Z,10.29
2022-11-18T13:34:21.577Z,10.22
2022-11-18T13:36:51.768Z,10.31
2022-11-18T13:39:25.330Z,10.33
2022-11-18T13:42:00.489Z,10.38
2022-11-18T13:44:36.566Z,10.39
2022-11-18T13:47:46.423Z,10.42
2022-11-18T13:50:21.347Z,10.38
2022-11-18T13:53:04.834Z,10.41
2022-11-18T13:55:37.556Z,10.37
2022-11-18T13:58:26.772Z,10.25
2022-11-18T14:01:01.104Z,10.43
2022-11-18T14:03:36.983Z,10.52
2022-11-18T14:06:04.201Z,10.52
2022-11-18T14:08:40.058Z,10.55
2022-11-18T14:11:07.429Z,10.69
2022-11-18T14:13:51.977Z,10.65
2022-11-18T14:16:19.080Z,10.66
2022-11-18T14:18:49.026Z,10.63
2022-11-18T14:21:28.679Z,10.63
2022-11-18T14:23:56.510Z,10.61
2022-11-18T14:26:35.753Z,10.67
2022-11-18T14:29:23.434Z,10.69
2022-11-18T14:32:15.299Z,10.79
2022-11-18T14:34:42.727Z,10.79
2022-11-18T14:37:13.470Z,10.77
2022-11-18T14:39:41.619Z,10.74
2022-11-18T14:42:13.279Z,10.77
2022-11-18T14:44:40.511Z,10.83
2022-11-18T14:47:26.503Z,10.81
2022-11-18T14:49:53.843Z,10.81
2022-11-18T14:52:21.114Z,10.77
2022-11-18T14:54:48.721Z,10.94
2022-11-18T14:57:17.583Z,11.02
2022-11-18T14:59:44.895Z,10.88
2022-11-18T15:02:17.996Z,10.87
2022-11-18T15:04:45.511Z,10.83
2022-11-18T15:07:20.094Z,10.86
2022-11-18T15:09:51.022Z,10.88
2022-11-18T15:12:18.403Z,10.89
2022-11-18T15:14:45.554Z,10.91
2022-11-18T15:17:13.541Z,10.90
2022-11-18T15:19:43.480Z,10.94
2022-11-18T15:22:11.073Z,10.97
2022-11-18T15:24:38.764Z,11.00
2022-11-18T15:27:05.830Z,10.96
2022-11-18T15:29:33.346Z,10.92
2022-11-18T15:32:00.619Z,10.91
2022-11-18T15:34:27.891Z,10.89
2022-11-18T15:36:55.170Z,10.94
2022-11-18T15:39:22.382Z,10.96
2022-11-18T15:41:52.006Z,10.94
2022-11-18T15:44:22.607Z,10.95
2022-11-18T15:46:50.736Z,10.92
2022-11-18T15:49:18.316Z,10.89
2022-11-18T15:51:45.619Z,10.86
2022-11-18T15:54:13.749Z,10.84
2022-11-18T15:56:42.068Z,10.83
2022-11-18T15:59:14.179Z,10.77
2022-11-18T16:01:43.584Z,10.79
2022-11-18T16:04:12.760Z,10.76
2022-11-18T16:06:40.428Z,10.70
2022-11-18T16:09:08.558Z,10.70
2022-11-18T16:11:54.618Z,10.58
2022-11-18T16:14:23.649Z,10.51
2022-11-18T16:16:54.367Z,10.54
2022-11-18T16:19:24.833Z,10.51
2022-11-18T16:21:55.373Z,10.51
2022-11-18T16:24:25.969Z,10.42
2022-11-18T16:26:53.756Z,10.42
2022-11-18T16:29:21.493Z,10.40
2022-11-18T16:31:54.717Z,10.34
2022-11-18T16:34:23.892Z,10.31
2022-11-18T16:36:55.999Z,10.18
2022-11-18T16:39:26.017Z,10.31
2022-11-18T16:41:55.857Z,10.29
2022-11-18T16:44:23.915Z,10.20
2022-11-18T16:46:57.825Z,10.11
2022-11-18T16:49:27.413Z,10.15
2022-11-18T16:51:56.878Z,10.28
2022-11-18T16:54:26.476Z,10.11
2022-11-18T16:56:55.621Z,10.14
2022-11-18T16:59:27.366Z,10.14
2022-11-18T17:01:56.904Z,10.09
2022-11-18T17:04:25.281Z,10.03
2022-11-18T17:06:53.153Z,10.01
2022-11-18T17:09:23.363Z,9.97
2022-11-18T17:11:52.374Z,9.95
2022-11-18T17:14:22.426Z,9.93
2022-11-18T17:16:50.644Z,9.92
2022-11-18T17:19:20.856Z,9.88
2022-11-18T17:21:49.318Z,9.85
2022-11-18T17:24:21.991Z,9.88
2022-11-18T17:26:49.879Z,9.88
2022-11-18T17:29:18.036Z,9.84
2022-11-18T17:31:45.817Z,9.81
2022-11-18T17:34:15.030Z,9.70
2022-11-18T17:36:42.909Z,9.80
2022-11-18T17:39:12.364Z,9.90
2022-11-18T17:41:58.618Z,9.91
2022-11-18T17:44:27.613Z,9.85
2022-11-18T17:46:54.974Z,9.87
2022-11-18T17:49:22.669Z,9.88
2022-11-18T17:51:51.621Z,9.83
2022-11-18T17:54:23.269Z,9.62
2022-11-18T17:56:53.610Z,9.70
2022-11-18T17:59:23.501Z,9.58
2022-11-18T18:01:55.885Z,9.58
2022-11-18T18:04:27.435Z,9.56
2022-11-18T18:06:55.293Z,9.49
2022-11-18T18:09:30.576Z,9.43
2022-11-18T18:11:59.850Z,9.46
2022-11-18T18:14:26.944Z,9.34
2022-11-18T18:16:54.611Z,9.19
2022-11-18T18:19:24.194Z,9.08
2022-11-18T18:21:53.527Z,9.18
2022-11-18T18:24:21.426Z,9.11
2022-11-18T18:26:51.741Z,9.10
2022-11-18T18:29:19.063Z,9.09
2022-11-18T18:31:46.157Z,9.10
2022-11-18T18:34:13.480Z,9.05
2022-11-18T18:36:40.828Z,9.09
2022-11-18T18:39:08.267Z,9.09
2022-11-18T18:41:36.058Z,9.02
2022-11-18T18:44:03.476Z,9.12
2022-11-18T18:46:34.824Z,9.10
2022-11-18T18:49:11.178Z,9.13
2022-11-18T18:51:43.709Z,9.17
2022-11-18T18:54:13.503Z,9.02
2022-11-18T18:56:42.263Z,8.98
2022-11-18T18:59:10.853Z,9.13
2022-11-18T19:01:38.970Z,9.12
2022-11-18T19:04:08.051Z,9.08
2022-11-18T19:09:27.981Z,9.08
2022-11-18T19:12:14.781Z,8.97
2022-11-18T19:14:42.102Z,9.07
2022-11-18T19:17:11.711Z,9.08
2022-11-18T19:20:00.208Z,9.12
2022-11-18T19:22:33.799Z,9.12
2022-11-18T19:25:01.672Z,9.17
2022-11-18T19:27:30.262Z,9.13
2022-11-18T19:29:57.677Z,9.05
2022-11-18T19:32:24.996Z,9.10
2022-11-18T19:34:52.242Z,9.12
2022-11-18T19:37:19.428Z,9.12
2022-11-18T19:39:46.834Z,9.08
2022-11-18T19:42:14.068Z,9.06
2022-11-18T19:44:41.195Z,9.05
2022-11-18T19:47:08.454Z,8.88
2022-11-18T19:49:36.489Z,8.98
2022-11-18T19:52:03.694Z,9.01
2022-11-18T19:54:30.912Z,8.97
2022-11-18T19:56:58.587Z,8.95
2022-11-18T19:59:26.087Z,8.97
2022-11-18T20:01:53.495Z,8.96
2022-11-18T20:04:21.466Z,8.98
2022-11-18T20:06:51.028Z,8.98
2022-11-18T20:09:19.041Z,8.97
2022-11-18T20:11:46.924Z,8.97
2022-11-18T20:14:14.443Z,8.97
2022-11-18T20:16:41.635Z,8.94
2022-11-18T20:19:14.000Z,8.92
2022-11-18T20:21:43.556Z,8.88
2022-11-18T20:24:16.165Z,8.90
2022-11-18T20:26:44.262Z,8.93
2022-11-18T20:29:11.497Z,8.94
2022-11-18T20:31:38.770Z,9.03
2022-11-18T20:34:06.208Z,9.00
2022-11-18T20:36:36.112Z,8.88
2022-11-18T20:39:09.227Z,8.96
2022-11-18T20:41:36.759Z,8.96
2022-11-18T20:44:04.461Z,8.99
2022-11-18T20:46:33.535Z,8.94
2022-11-18T20:49:00.908Z,8.97
2022-11-18T20:51:29.284Z,9.00
2022-11-18T20:53:59.005Z,8.91
2022-11-18T20:56:28.113Z,8.97
2022-11-18T20:58:58.323Z,8.95
2022-11-18T21:01:28.684Z,8.97
2022-11-18T21:03:58.624Z,8.87
2022-11-18T21:06:29.222Z,8.94
2022-11-18T21:09:02.743Z,9.02
2022-11-18T21:11:30.775Z,8.97
2022-11-18T21:14:23.023Z,8.90
2022-11-18T21:16:55.689Z,8.96
2022-11-18T21:19:23.834Z,8.97
2022-11-18T21:21:54.113Z,8.95
2022-11-18T21:24:32.278Z,8.92
2022-11-18T21:27:00.757Z,8.91
2022-11-18T21:29:30.023Z,8.93
2022-11-18T21:31:58.666Z,8.91
2022-11-18T21:34:25.836Z,8.91
2022-11-18T21:36:55.196Z,8.90
2022-11-18T21:39:25.993Z,8.90
2022-11-18T21:41:56.571Z,8.88
2022-11-18T21:44:26.516Z,8.91
2022-11-18T21:46:54.000Z,8.91
2022-11-18T21:49:22.264Z,8.86
2022-11-18T21:51:49.934Z,8.80
2022-11-18T21:54:18.660Z,8.82
2022-11-18T21:56:46.157Z,8.83
2022-11-18T21:59:13.287Z,8.86
2022-11-18T22:01:40.360Z,8.86
2022-11-18T22:04:07.665Z,8.86
2022-11-18T22:06:35.531Z,8.86
2022-11-18T22:09:04.711Z,8.84
2022-11-18T22:11:32.511Z,8.74
2022-11-18T22:14:02.203Z,8.76
2022-11-18T22:16:29.365Z,8.82
2022-11-18T22:19:01.519Z,8.74
2022-11-18T22:21:32.400Z,8.80
2022-11-18T22:24:01.012Z,8.75
2022-11-18T22:26:29.142Z,8.73
2022-11-18T22:28:58.433Z,8.73
2022-11-18T22:31:28.056Z,8.68
2022-11-18T22:33:57.062Z,8.67
2022-11-18T22:36:26.666Z,8.57
2022-11-18T22:38:55.235Z,8.59
2022-11-18T22:41:43.337Z,8.56
2022-11-18T22:44:11.974Z,8.61
2022-11-18T22:46:41.080Z,8.60
2022-11-18T22:49:10.111Z,8.61
2022-11-18T22:51:39.276Z,8.61
2022-11-18T22:54:36.993Z,8.58
2022-11-18T22:56:56.023Z,8.60
2022-11-18T22:59:23.865Z,8.57
2022-11-18T23:01:54.367Z,8.57
2022-11-18T23:04:21.819Z,8.59
2022-11-18T23:06:49.877Z,8.64
2022-11-18T23:09:17.774Z,8.60
2022-11-18T23:12:04.236Z,8.44
2022-11-18T23:14:31.996Z,8.54
2022-11-18T23:16:59.356Z,8.59
2022-11-18T23:19:27.162Z,8.59
2022-11-18T23:21:55.297Z,8.52
2022-11-18T23:24:22.871Z,8.48
2022-11-18T23:26:51.078Z,8.51
2022-11-18T23:29:19.060Z,8.51
2022-11-18T23:31:46.678Z,8.49
2022-11-18T23:34:15.957Z,8.53
2022-11-18T23:36:44.392Z,8.55
2022-11-18T23:39:12.394Z,8.60
2022-11-18T23:41:40.642Z,8.42
2022-11-18T23:44:08.065Z,8.56
2022-11-18T23:46:35.244Z,8.61
2022-11-18T23:49:02.665Z,8.55
2022-11-18T23:51:30.015Z,8.58
2022-11-18T23:53:58.024Z,8.55
2022-11-18T23:56:28.076Z,8.43
2022-11-18T23:58:57.049Z,8.53
